createdAt,value
2019-01-21T00:02:27.239Z,28.93
2019-01-21T00:04:57.086Z,27.30
2019-01-21T00:07:28.073Z,27.67
2019-01-21T00:09:59.523Z,28.17
2019-01-21T00:12:29.300Z,27.40
2019-01-21T00:15:00.740Z,28.33
2019-01-21T00:17:33.480Z,27.37
2019-01-21T00:20:03.683Z,28.13
2019-01-21T00:22:33.459Z,27.23
2019-01-21T00:25:03.178Z,27.87
2019-01-21T00:27:32.919Z,27.30
2019-01-21T00:30:02.563Z,27.40
2019-01-21T00:32:32.280Z,27.93
2019-01-21T00:35:02.013Z,27.47
2019-01-21T00:37:31.833Z,26.53
2019-01-21T00:40:02.047Z,27.33
2019-01-21T00:42:31.910Z,27.07
2019-01-21T00:45:01.721Z,26.93
2019-01-21T00:47:31.534Z,26.33
2019-01-21T00:50:01.399Z,27.97
2019-01-21T00:52:31.339Z,26.83
2019-01-21T00:55:01.159Z,26.77
2019-01-21T00:57:30.984Z,26.60
2019-01-21T01:00:00.706Z,25.77
2019-01-21T01:02:31.594Z,26.33
2019-01-21T01:05:01.417Z,25.73
2019-01-21T01:07:36.415Z,26.13
2019-01-21T01:10:10.066Z,26.17
2019-01-21T01:12:39.980Z,27.17
2019-01-21T01:15:11.990Z,26.07
2019-01-21T01:17:41.849Z,27.00
2019-01-21T01:20:14.745Z,27.47
2019-01-21T01:22:44.567Z,27.47
2019-01-21T01:25:14.465Z,25.77
2019-01-21T01:27:44.375Z,27.63
2019-01-21T01:30:16.382Z,27.67
2019-01-21T01:32:46.189Z,28.47
2019-01-21T01:35:17.310Z,27.97
2019-01-21T01:37:47.102Z,27.97
2019-01-21T01:40:18.210Z,28.17
2019-01-21T01:42:47.957Z,28.17
2019-01-21T01:45:21.337Z,27.47
2019-01-21T01:47:54.848Z,28.57
2019-01-21T01:50:24.637Z,26.70
2019-01-21T01:52:54.467Z,27.37
2019-01-21T01:55:25.099Z,28.23
2019-01-21T01:57:56.051Z,26.47
2019-01-21T02:00:27.191Z,27.40
2019-01-21T02:02:58.154Z,27.80
2019-01-21T02:05:28.554Z,26.97
2019-01-21T02:07:58.354Z,27.17
2019-01-21T02:10:28.129Z,26.70
2019-01-21T02:13:01.190Z,28.97
2019-01-21T02:15:30.979Z,27.90
2019-01-21T02:18:00.833Z,27.03
2019-01-21T02:20:30.657Z,28.90
2019-01-21T02:23:02.773Z,26.97
2019-01-21T02:25:37.004Z,28.00
2019-01-21T02:28:27.084Z,27.53
2019-01-21T02:31:14.594Z,26.23
2019-01-21T02:34:04.108Z,27.57
2019-01-21T02:36:56.849Z,28.03
2019-01-21T02:39:46.429Z,27.67
2019-01-21T02:42:33.211Z,27.90
2019-01-21T02:45:20.877Z,27.27
2019-01-21T02:48:01.293Z,27.83
2019-01-21T02:50:40.145Z,27.83
2019-01-21T02:53:23.891Z,28.37
2019-01-21T02:56:09.623Z,27.97
2019-01-21T02:59:02.271Z,27.43
2019-01-21T03:01:53.324Z,27.23
2019-01-21T03:04:29.119Z,26.83
2019-01-21T03:07:11.128Z,26.83
2019-01-21T03:09:52.584Z,28.47
2019-01-21T03:12:43.268Z,28.23
2019-01-21T03:15:29.355Z,28.47
2019-01-21T03:18:28.770Z,27.43
2019-01-21T03:21:34.374Z,28.83
2019-01-21T03:24:33.667Z,28.67
2019-01-21T03:27:16.441Z,28.67
2019-01-21T03:30:06.774Z,28.80
2019-01-21T03:33:11.376Z,28.60
2019-01-21T03:35:51.680Z,28.47
2019-01-21T03:38:59.253Z,29.70
2019-01-21T03:41:34.396Z,27.67
2019-01-21T03:44:17.839Z,29.27
2019-01-21T03:47:07.142Z,28.60
2019-01-21T03:49:42.562Z,28.60
2019-01-21T03:52:38.915Z,28.37
2019-01-21T03:55:11.928Z,28.37
2019-01-21T03:58:05.636Z,28.50
2019-01-21T04:00:42.505Z,33.20
2019-01-21T04:03:46.689Z,34.47
2019-01-21T04:06:25.263Z,31.00
2019-01-21T04:09:21.138Z,28.87
2019-01-21T04:12:16.361Z,28.67
2019-01-21T04:15:27.674Z,30.30
2019-01-21T04:18:38.455Z,30.63
2019-01-21T04:21:42.794Z,30.70
2019-01-21T04:24:16.313Z,29.77
2019-01-21T04:27:03.452Z,30.03
2019-01-21T04:29:59.919Z,29.03
2019-01-21T04:32:33.619Z,28.67
2019-01-21T04:35:06.333Z,29.37
2019-01-21T04:38:00.114Z,28.77
2019-01-21T04:40:45.923Z,29.50
2019-01-21T04:43:42.958Z,27.30
2019-01-21T04:46:27.260Z,27.50
2019-01-21T04:49:19.490Z,28.67
2019-01-21T04:52:10.482Z,27.23
2019-01-21T04:55:10.108Z,28.20
2019-01-21T04:57:58.189Z,28.23
2019-01-21T05:00:34.326Z,28.43
2019-01-21T05:03:26.766Z,27.47
2019-01-21T05:05:59.629Z,27.30
2019-01-21T05:08:38.281Z,27.20
2019-01-21T05:11:25.201Z,27.83
2019-01-21T05:14:05.447Z,29.13
2019-01-21T05:16:50.930Z,44.73
2019-01-21T05:19:30.582Z,29.80
2019-01-21T05:22:27.191Z,27.90
2019-01-21T05:25:12.803Z,26.90
2019-01-21T05:28:02.085Z,27.67
2019-01-21T05:30:52.780Z,28.67
2019-01-21T05:33:40.825Z,28.40
2019-01-21T05:36:31.086Z,27.70
2019-01-21T05:39:06.607Z,27.60
2019-01-21T05:41:59.960Z,27.53
2019-01-21T05:44:35.676Z,27.90
2019-01-21T05:47:25.713Z,28.60
2019-01-21T05:50:08.826Z,27.77
2019-01-21T05:56:36.342Z,27.90
2019-01-21T05:59:28.359Z,27.63
2019-01-21T06:02:26.873Z,28.10
2019-01-21T06:05:25.175Z,28.17
2019-01-21T06:08:18.371Z,27.70
2019-01-21T06:11:24.701Z,28.10
2019-01-21T06:14:26.424Z,27.87
2019-01-21T06:17:34.342Z,29.17
2019-01-21T06:20:31.960Z,27.57
2019-01-21T06:23:14.032Z,27.97
2019-01-21T06:26:16.778Z,28.80
2019-01-21T06:29:08.033Z,27.13
2019-01-21T06:31:56.784Z,29.37
2019-01-21T06:35:03.935Z,29.30
2019-01-21T06:37:53.189Z,27.77
2019-01-21T06:40:45.856Z,28.23
2019-01-21T06:47:17.224Z,28.17
2019-01-21T06:50:13.258Z,28.17
2019-01-21T06:53:16.636Z,29.27
2019-01-21T06:56:32.352Z,27.63
2019-01-21T07:00:07.399Z,38.00
2019-01-21T07:03:20.440Z,33.33
2019-01-21T07:06:03.929Z,30.27
2019-01-21T07:09:03.364Z,30.53
2019-01-21T07:11:49.466Z,28.40
2019-01-21T07:14:22.321Z,26.83
2019-01-21T07:17:24.380Z,28.80
2019-01-21T07:20:17.856Z,27.67
2019-01-21T07:23:17.830Z,28.87
2019-01-21T07:26:13.295Z,27.90
2019-01-21T07:28:57.802Z,28.63
2019-01-21T07:31:52.418Z,28.80
2019-01-21T07:34:44.430Z,29.57
2019-01-21T07:37:24.586Z,28.63
2019-01-21T07:40:19.806Z,29.53
2019-01-21T07:43:11.383Z,29.40
2019-01-21T07:45:56.552Z,29.37
2019-01-21T07:48:42.234Z,28.97
2019-01-21T07:51:34.828Z,29.87
2019-01-21T07:54:34.368Z,28.87
2019-01-21T07:57:38.214Z,28.67
2019-01-21T08:00:21.340Z,27.77
2019-01-21T08:03:07.014Z,29.47
2019-01-21T08:05:52.809Z,28.50
2019-01-21T08:08:50.481Z,29.20
2019-01-21T08:11:35.477Z,28.40
2019-01-21T08:14:23.646Z,29.83
2019-01-21T08:17:09.387Z,29.03
2019-01-21T08:20:11.613Z,29.13
2019-01-21T08:23:08.399Z,27.80
2019-01-21T08:26:11.421Z,57.57
2019-01-21T08:29:09.447Z,31.10
2019-01-21T08:31:45.179Z,28.63
2019-01-21T08:34:49.226Z,28.80
2019-01-21T08:37:39.403Z,29.50
2019-01-21T08:40:39.580Z,27.93
2019-01-21T08:43:42.522Z,28.53
2019-01-21T08:46:47.099Z,29.43
2019-01-21T08:49:36.459Z,29.40
2019-01-21T08:52:51.985Z,28.63
2019-01-21T08:55:29.840Z,29.77
2019-01-21T08:58:33.323Z,29.90
2019-01-21T09:01:37.439Z,30.00
2019-01-21T09:04:46.381Z,29.93
2019-01-21T09:07:41.920Z,28.97
2019-01-21T09:10:25.138Z,29.73
2019-01-21T09:13:06.326Z,29.40
2019-01-21T09:16:09.228Z,30.17
2019-01-21T09:18:54.426Z,28.90
2019-01-21T09:21:39.430Z,28.83
2019-01-21T09:24:28.943Z,30.03
2019-01-21T09:27:26.752Z,30.97
2019-01-21T09:30:22.612Z,29.67
2019-01-21T09:33:13.527Z,29.60
2019-01-21T09:36:27.589Z,29.23
2019-01-21T09:39:11.401Z,29.23
2019-01-21T09:41:59.261Z,31.53
2019-01-21T09:44:33.727Z,29.20
2019-01-21T09:47:02.524Z,29.87
2019-01-21T09:49:31.183Z,30.77
2019-01-21T09:52:06.776Z,31.67
2019-01-21T09:54:36.808Z,30.57
2019-01-21T09:57:06.654Z,30.10
2019-01-21T09:59:36.475Z,30.80
2019-01-21T10:02:07.197Z,30.70
2019-01-21T10:04:40.204Z,30.63
2019-01-21T10:07:18.549Z,30.97
2019-01-21T10:10:06.486Z,30.30
2019-01-21T10:13:14.949Z,29.90
2019-01-21T10:15:52.059Z,31.00
2019-01-21T10:18:51.829Z,30.37
2019-01-21T10:21:31.899Z,30.50
2019-01-21T10:24:40.309Z,30.97
2019-01-21T10:27:19.939Z,31.10
2019-01-21T10:29:59.692Z,31.33
2019-01-21T10:32:35.504Z,30.80
2019-01-21T10:35:08.539Z,31.40
2019-01-21T10:37:50.018Z,32.27
2019-01-21T10:40:26.825Z,32.13
2019-01-21T10:43:24.013Z,31.97
2019-01-21T10:46:05.519Z,33.37
2019-01-21T10:48:40.846Z,32.20
2019-01-21T10:51:40.849Z,33.63
2019-01-21T10:54:20.936Z,32.77
2019-01-21T10:56:56.548Z,33.13
2019-01-21T10:59:30.293Z,31.83
2019-01-21T11:02:32.786Z,33.37
2019-01-21T11:05:21.471Z,32.17
2019-01-21T11:08:06.005Z,52.03
2019-01-21T11:10:57.990Z,43.00
2019-01-21T11:14:00.825Z,32.63
2019-01-21T11:16:36.330Z,32.20
2019-01-21T11:19:41.508Z,33.87
2019-01-21T11:22:20.226Z,32.47
2019-01-21T11:25:18.620Z,33.30
2019-01-21T11:27:52.946Z,32.43
2019-01-21T11:30:35.833Z,33.03
2019-01-21T11:33:22.607Z,33.33
2019-01-21T11:36:16.081Z,32.53
2019-01-21T11:38:54.912Z,33.77
2019-01-21T11:41:29.503Z,34.00
2019-01-21T11:44:21.638Z,34.93
2019-01-21T11:47:06.828Z,32.67
2019-01-21T11:49:44.245Z,34.00
2019-01-21T11:52:41.672Z,32.40
2019-01-21T11:55:25.706Z,34.20
2019-01-21T11:58:31.787Z,33.00
2019-01-21T12:01:33.224Z,32.90
2019-01-21T12:04:19.754Z,33.07
2019-01-21T12:07:10.221Z,31.80
2019-01-21T12:09:59.280Z,29.40
2019-01-21T12:12:34.481Z,30.93
2019-01-21T12:15:26.882Z,31.43
2019-01-21T12:18:03.753Z,29.33
2019-01-21T12:20:59.102Z,31.07
2019-01-21T12:23:40.640Z,30.07
2019-01-21T12:26:26.659Z,30.67
2019-01-21T12:29:17.362Z,30.53
2019-01-21T12:32:11.779Z,29.73
2019-01-21T12:34:59.635Z,29.43
2019-01-21T12:37:44.045Z,29.33
2019-01-21T12:40:22.690Z,28.57
2019-01-21T12:43:05.659Z,29.57
2019-01-21T12:45:44.294Z,28.83
2019-01-21T12:48:23.524Z,25.70
2019-01-21T12:51:19.026Z,25.30
2019-01-21T12:54:09.092Z,24.97
2019-01-21T12:56:48.496Z,25.30
2019-01-21T12:59:43.727Z,24.97
2019-01-21T13:02:30.818Z,25.13
2019-01-21T13:05:12.681Z,25.57
2019-01-21T13:07:52.556Z,23.20
2019-01-21T13:10:48.056Z,20.27
2019-01-21T13:13:31.486Z,20.33
2019-01-21T13:16:22.306Z,22.93
2019-01-21T13:19:11.958Z,21.07
2019-01-21T13:22:19.686Z,21.10
2019-01-21T13:25:13.105Z,18.50
2019-01-21T13:27:56.036Z,19.43
2019-01-21T13:30:59.440Z,19.87
2019-01-21T13:33:54.840Z,19.53
2019-01-21T13:36:46.876Z,26.03
2019-01-21T13:39:32.747Z,27.57
2019-01-21T13:42:09.319Z,26.83
2019-01-21T13:44:42.177Z,29.20
2019-01-21T13:47:30.886Z,27.90
2019-01-21T13:50:03.710Z,27.00
2019-01-21T13:52:56.869Z,28.13
2019-01-21T13:55:36.078Z,25.73
2019-01-21T13:58:22.219Z,23.40
2019-01-21T14:01:11.231Z,24.23
2019-01-21T14:03:56.380Z,22.53
2019-01-21T14:06:29.279Z,23.47
2019-01-21T14:09:16.555Z,23.33
2019-01-21T14:12:11.403Z,24.37
2019-01-21T14:14:54.733Z,22.77
2019-01-21T14:17:30.075Z,25.03
2019-01-21T14:20:02.995Z,24.20
2019-01-21T14:22:46.193Z,25.00
2019-01-21T14:25:24.935Z,23.67
2019-01-21T14:28:03.692Z,24.83
2019-01-21T14:30:50.303Z,23.60
2019-01-21T14:33:32.219Z,25.03
2019-01-21T14:36:17.467Z,23.37
2019-01-21T14:38:58.559Z,25.47
2019-01-21T14:41:45.222Z,23.80
2019-01-21T14:44:51.089Z,23.53
2019-01-21T14:47:26.649Z,24.70
2019-01-21T14:50:18.882Z,24.27
2019-01-21T14:53:18.220Z,23.47
2019-01-21T14:55:53.724Z,25.07
2019-01-21T14:58:56.728Z,24.40
2019-01-21T15:01:41.939Z,23.93
2019-01-21T15:04:27.562Z,24.23
2019-01-21T15:07:06.259Z,22.93
2019-01-21T15:10:06.303Z,23.70
2019-01-21T15:12:44.074Z,24.40
2019-01-21T15:15:43.534Z,23.10
2019-01-21T15:18:28.406Z,23.77
2019-01-21T15:21:16.658Z,24.13
2019-01-21T15:24:02.501Z,24.20
2019-01-21T15:26:39.918Z,23.97
2019-01-21T15:29:37.549Z,23.27
2019-01-21T15:32:20.370Z,23.60
2019-01-21T15:34:59.571Z,21.90
2019-01-21T15:37:55.171Z,35.20
2019-01-21T15:40:59.189Z,30.63
2019-01-21T15:43:45.630Z,23.43
2019-01-21T15:46:24.292Z,23.10
2019-01-21T15:49:02.918Z,24.67
2019-01-21T15:51:40.111Z,24.63
2019-01-21T15:54:18.250Z,23.47
2019-01-21T15:57:05.835Z,25.23
2019-01-21T15:59:49.107Z,24.03
2019-01-21T16:02:32.613Z,24.10
2019-01-21T16:05:24.194Z,23.90
2019-01-21T16:07:57.631Z,24.03
2019-01-21T16:10:54.662Z,24.47
2019-01-21T16:13:37.268Z,24.97
2019-01-21T16:16:34.835Z,24.40
2019-01-21T16:19:09.432Z,23.60
2019-01-21T16:21:42.202Z,24.33
2019-01-21T16:24:36.185Z,34.57
2019-01-21T16:27:12.607Z,23.83
2019-01-21T16:30:01.727Z,24.33
2019-01-21T16:32:34.632Z,24.93
2019-01-21T16:35:30.925Z,24.80
2019-01-21T16:38:08.017Z,24.97
2019-01-21T16:40:43.512Z,22.43
2019-01-21T16:43:15.038Z,21.60
2019-01-21T16:45:47.100Z,22.20
2019-01-21T16:48:16.931Z,26.40
2019-01-21T16:50:48.380Z,26.93
2019-01-21T16:53:21.281Z,27.13
2019-01-21T16:55:52.701Z,27.60
2019-01-21T16:58:22.708Z,31.47
2019-01-21T17:00:53.526Z,29.93
2019-01-21T17:03:24.991Z,25.30
2019-01-21T17:05:54.819Z,24.70
2019-01-21T17:08:24.858Z,25.93
2019-01-21T17:10:54.753Z,24.63
2019-01-21T17:13:24.553Z,26.47
2019-01-21T17:15:54.341Z,27.93
2019-01-21T17:18:24.151Z,28.20
2019-01-21T17:20:54.525Z,29.43
2019-01-21T17:23:25.357Z,28.30
2019-01-21T17:25:55.075Z,39.10
2019-01-21T17:28:24.916Z,31.60
2019-01-21T17:30:57.104Z,27.40
2019-01-21T17:33:27.074Z,28.60
2019-01-21T17:35:56.932Z,25.50
2019-01-21T17:38:26.795Z,25.10
2019-01-21T17:40:57.943Z,25.30
2019-01-21T17:43:27.794Z,26.60
2019-01-21T17:45:57.633Z,26.03
2019-01-21T17:48:30.266Z,25.77
2019-01-21T17:51:05.174Z,24.70
2019-01-21T17:53:34.874Z,25.57
2019-01-21T17:56:05.064Z,26.33
2019-01-21T17:58:40.174Z,25.73
2019-01-21T18:01:09.993Z,26.33
2019-01-21T18:03:44.062Z,26.00
2019-01-21T18:06:14.793Z,26.53
2019-01-21T18:08:44.767Z,26.60
2019-01-21T18:11:14.717Z,25.27
2019-01-21T18:13:46.275Z,25.53
2019-01-21T18:16:16.753Z,26.30
2019-01-21T18:18:46.547Z,25.30
2019-01-21T18:21:16.353Z,27.27
2019-01-21T18:23:46.571Z,28.47
2019-01-21T18:26:18.331Z,25.17
2019-01-21T18:28:48.153Z,25.57
2019-01-21T18:31:19.082Z,26.93
2019-01-21T18:33:50.013Z,36.43
2019-01-21T18:36:21.334Z,29.93
2019-01-21T18:38:52.764Z,27.73
2019-01-21T18:41:22.974Z,27.87
2019-01-21T18:43:55.868Z,28.93
2019-01-21T18:46:26.573Z,36.97
2019-01-21T18:48:58.907Z,31.83
2019-01-21T18:51:28.758Z,26.63
2019-01-21T18:53:58.572Z,26.50
2019-01-21T18:56:28.432Z,24.63
2019-01-21T18:58:58.741Z,25.47
2019-01-21T19:01:28.580Z,25.00
2019-01-21T19:03:59.309Z,24.37
2019-01-21T19:06:29.508Z,28.00
2019-01-21T19:08:59.281Z,25.43
2019-01-21T19:11:29.108Z,25.00
2019-01-21T19:13:58.904Z,25.67
2019-01-21T19:16:28.754Z,25.67
2019-01-21T19:18:58.527Z,25.17
2019-01-21T19:21:28.338Z,24.77
2019-01-21T19:23:58.210Z,25.93
2019-01-21T19:26:28.003Z,25.00
2019-01-21T19:28:58.798Z,25.00
2019-01-21T19:31:30.120Z,24.90
2019-01-21T19:34:00.084Z,25.57
2019-01-21T19:36:29.945Z,25.13
2019-01-21T19:38:59.763Z,25.47
2019-01-21T19:41:29.705Z,26.40
2019-01-21T19:43:59.663Z,26.07
2019-01-21T19:46:29.425Z,25.20
2019-01-21T19:48:59.287Z,25.70
2019-01-21T19:51:29.877Z,27.00
2019-01-21T19:53:59.702Z,25.97
2019-01-21T19:56:29.677Z,25.87
2019-01-21T19:58:59.479Z,25.40
2019-01-21T20:01:30.929Z,26.57
2019-01-21T20:04:00.843Z,59.53
2019-01-21T20:06:30.959Z,61.83
2019-01-21T20:09:00.724Z,26.70
2019-01-21T20:11:34.840Z,25.90
2019-01-21T20:14:01.982Z,26.53
2019-01-21T20:16:31.838Z,26.10
2019-01-21T20:19:01.594Z,25.57
2019-01-21T20:21:31.424Z,27.17
2019-01-21T20:24:01.302Z,26.77
2019-01-21T20:26:32.668Z,24.03
2019-01-21T20:29:02.470Z,26.60
2019-01-21T20:31:32.184Z,25.60
2019-01-21T20:34:02.282Z,26.83
2019-01-21T20:36:32.066Z,27.47
2019-01-21T20:39:01.902Z,26.10
2019-01-21T20:41:32.004Z,26.67
2019-01-21T20:44:01.764Z,26.03
2019-01-21T20:46:31.787Z,26.23
2019-01-21T20:49:01.603Z,26.17
2019-01-21T20:51:31.522Z,26.47
2019-01-21T20:54:01.457Z,27.43
2019-01-21T20:56:31.224Z,26.70
2019-01-21T20:59:01.004Z,27.73
2019-01-21T21:01:30.843Z,26.43
2019-01-21T21:04:00.823Z,31.47
2019-01-21T21:06:31.705Z,27.87
2019-01-21T21:09:02.437Z,27.90
2019-01-21T21:11:31.947Z,26.83
2019-01-21T21:14:01.603Z,26.90
2019-01-21T21:16:31.425Z,27.83
2019-01-21T21:19:01.244Z,25.80
2019-01-21T21:21:31.050Z,27.83
2019-01-21T21:24:00.689Z,26.70
2019-01-21T21:26:30.318Z,26.17
2019-01-21T21:29:00.144Z,26.67
2019-01-21T21:31:31.420Z,27.27
2019-01-21T21:34:01.267Z,26.23
2019-01-21T21:36:31.213Z,27.57
2019-01-21T21:39:01.883Z,27.37
2019-01-21T21:44:30.712Z,26.20
2019-01-21T21:47:00.644Z,25.40
2019-01-21T21:49:30.465Z,27.07
2019-01-21T21:52:00.358Z,26.57
2019-01-21T21:54:30.284Z,25.73
2019-01-21T21:57:04.842Z,27.77
2019-01-21T21:59:36.491Z,27.40
2019-01-21T22:02:07.516Z,28.63
2019-01-21T22:04:46.453Z,29.27
2019-01-21T22:07:28.260Z,27.17
2019-01-21T22:09:57.964Z,28.97
2019-01-21T22:12:27.785Z,30.33
2019-01-21T22:14:57.643Z,28.90
2019-01-21T22:17:27.462Z,28.40
2019-01-21T22:19:57.166Z,31.47
2019-01-21T22:22:34.724Z,37.00
2019-01-21T22:25:00.913Z,34.27
2019-01-21T22:27:30.704Z,33.47
2019-01-21T22:30:00.536Z,32.27
2019-01-21T22:32:30.413Z,32.33
2019-01-21T22:35:00.208Z,32.87
2019-01-21T22:37:29.791Z,33.00
2019-01-21T22:39:59.613Z,31.53
2019-01-21T22:42:29.455Z,34.30
2019-01-21T22:44:59.102Z,35.27
2019-01-21T22:47:28.733Z,34.77
2019-01-21T22:49:58.504Z,34.27
2019-01-21T22:52:28.515Z,35.27
2019-01-21T22:54:58.547Z,33.87
2019-01-21T22:57:28.879Z,34.43
2019-01-21T22:59:59.003Z,34.83
2019-01-21T23:02:28.782Z,34.00
2019-01-21T23:04:58.904Z,35.07
2019-01-21T23:07:28.685Z,34.97
2019-01-21T23:09:58.464Z,35.13
2019-01-21T23:12:28.286Z,33.37
2019-01-21T23:14:57.944Z,33.73
2019-01-21T23:17:27.911Z,33.50
2019-01-21T23:19:57.685Z,34.53
2019-01-21T23:22:27.424Z,33.47
2019-01-21T23:24:57.123Z,32.23
2019-01-21T23:27:26.865Z,32.70
2019-01-21T23:29:57.065Z,32.43
2019-01-21T23:32:27.665Z,31.63
2019-01-21T23:34:57.484Z,32.33
2019-01-21T23:37:27.164Z,31.43
2019-01-21T23:39:56.907Z,32.07
2019-01-21T23:42:27.029Z,31.83
2019-01-21T23:44:56.724Z,31.30
2019-01-21T23:47:26.347Z,31.87
2019-01-21T23:49:56.828Z,30.37
2019-01-21T23:52:26.494Z,31.37
2019-01-21T23:54:56.596Z,31.37
2019-01-21T23:57:26.567Z,30.97
2019-01-21T23:59:56.353Z,30.40
